Time;durP1;ratioP1;P1;durP2;ratioP2;P2;SDS_P1;SDS_P2;PMS_P1;PMS_P2;Temp;Humidity;BMP_temperature;BMP_pressure;BME280_temperature;BME280_humidity;BME280_pressure;Samples;Min_cycle;Max_cycle;Signal;HPM_P1;HPM_P2
2021/04/19 04:11:01;;;;;;;6.18;1.45;;;2.80;99.90;;;;;;5043133;28;20091;-67
2021/04/19 04:13:29;;;;;;;2.53;1.50;;;5.40;99.90;;;;;;5038290;28;20036;-65
2021/04/19 04:15:59;;;;;;;4.32;2.00;;;5.50;84.00;;;;;;5044576;28;20029;-65
2021/04/19 04:18:26;;;;;;;2.45;1.40;;;5.20;79.90;;;;;;5043644;28;20150;-64
2021/04/19 04:20:52;;;;;;;3.85;1.23;;;5.20;80.00;;;;;;5052581;28;20044;-63
2021/04/19 04:23:18;;;;;;;7.20;2.08;;;5.30;78.60;;;;;;5049705;28;20022;-64
2021/04/19 04:25:45;;;;;;;8.15;1.63;;;5.40;77.20;;;;;;5050585;28;20412;-63
2021/04/19 04:28:12;;;;;;;5.40;1.45;;;5.60;77.60;;;;;;5052100;28;20099;-65
2021/04/19 04:30:38;;;;;;;7.35;1.60;;;5.80;75.10;;;;;;5051591;28;20049;-64
2021/04/19 04:33:05;;;;;;;3.33;1.70;;;6.00;73.50;;;;;;5045329;28;20104;-64
2021/04/19 04:35:32;;;;;;;8.90;1.70;;;6.00;72.40;;;;;;5048794;28;20026;-64
2021/04/19 04:37:58;;;;;;;3.90;1.60;;;6.10;72.40;;;;;;5041204;28;20087;-64
2021/04/19 04:40:28;;;;;;;4.03;1.52;;;6.40;71.50;;;;;;5050922;28;20033;-65
2021/04/19 04:43:00;;;;;;;4.20;1.30;;;6.60;70.40;;;;;;5052036;28;20032;-65
2021/04/19 04:45:27;;;;;;;5.03;1.48;;;7.00;69.40;;;;;;5051987;28;20451;-65
2021/04/19 04:48:14;;;;;;;9.98;1.88;;;7.30;68.10;;;;;;5051926;28;20025;-64
2021/04/19 04:50:46;;;;;;;10.68;1.75;;;7.70;68.30;;;;;;5051864;28;20029;-65
2021/04/19 04:53:17;;;;;;;9.07;1.70;;;8.10;65.80;;;;;;5051588;28;20025;-66
2021/04/19 04:55:46;;;;;;;6.72;1.60;;;8.30;64.50;;;;;;5051929;28;20025;-65
2021/04/19 04:58:13;;;;;;;12.13;1.60;;;8.50;63.70;;;;;;5051610;28;20037;-67
2021/04/19 05:00:40;;;;;;;7.55;1.63;;;8.70;63.10;;;;;;5052180;28;20056;-66
2021/04/19 05:03:09;;;;;;;5.30;1.55;;;9.00;62.00;;;;;;5051694;28;20017;-66
2021/04/19 05:05:36;;;;;;;4.28;1.30;;;9.30;60.90;;;;;;5051840;28;20398;-66
2021/04/19 05:08:02;;;;;;;5.80;1.70;;;9.40;60.70;;;;;;5037807;28;20013;-66
2021/04/19 05:10:28;;;;;;;7.13;1.60;;;9.80;59.80;;;;;;5051273;28;20033;-66
2021/04/19 05:12:54;;;;;;;6.93;1.60;;;10.00;59.30;;;;;;5051181;28;20131;-66
2021/04/19 05:15:20;;;;;;;11.63;1.65;;;10.30;58.60;;;;;;5051543;28;20116;-66
2021/04/19 05:17:46;;;;;;;6.10;2.40;;;10.50;58.30;;;;;;5036664;28;20025;-65
2021/04/19 05:20:14;;;;;;;4.55;1.60;;;10.70;57.80;;;;;;5049136;28;20036;-65
2021/04/19 05:22:42;;;;;;;6.43;2.15;;;10.90;56.90;;;;;;5045962;28;20029;-65
2021/04/19 05:25:08;;;;;;;9.15;1.67;;;11.00;56.50;;;;;;5048742;28;20055;-64
2021/04/19 05:27:34;;;;;;;7.97;1.98;;;11.20;56.10;;;;;;5051482;28;20485;-66
2021/04/19 05:30:00;;;;;;;13.23;2.35;;;11.20;55.70;;;;;;5051522;28;20154;-66
2021/04/19 05:32:27;;;;;;;6.20;1.90;;;11.40;55.80;;;;;;5051785;28;20028;-66
2021/04/19 05:34:54;;;;;;;19.10;1.80;;;11.60;55.10;;;;;;5051433;28;20029;-65
2021/04/19 05:37:21;;;;;;;7.82;2.35;;;11.80;54.60;;;;;;5037576;28;20035;-66
2021/04/19 05:39:48;;;;;;;6.82;1.30;;;12.20;55.30;;;;;;5037282;28;20037;-65
2021/04/19 05:42:14;;;;;;;6.72;1.67;;;12.60;62.30;;;;;;5036924;28;20029;-65
2021/04/19 05:44:41;;;;;;;11.52;1.30;;;13.80;62.30;;;;;;5050760;28;20024;-64
2021/04/19 05:47:09;;;;;;;16.30;1.80;;;14.70;59.90;;;;;;5046381;28;20025;-64
2021/04/19 05:49:34;;;;;;;15.50;1.63;;;15.50;57.90;;;;;;5051082;28;20029;-64
2021/04/19 05:52:03;;;;;;;6.35;1.58;;;15.50;53.40;;;;;;5050654;28;20063;-64
2021/04/19 05:54:29;;;;;;;13.68;2.00;;;15.50;54.10;;;;;;5049013;28;20082;-65
2021/04/19 05:57:13;;;;;;;20.10;2.05;;;15.30;50.00;;;;;;5046278;28;20029;-65
2021/04/19 05:59:48;;;;;;;14.18;2.20;;;14.70;49.20;;;;;;5052137;28;20061;-64
2021/04/19 06:02:19;;;;;;;20.17;2.13;;;14.20;49.50;;;;;;5053972;28;20028;-67
2021/04/19 06:04:59;;;;;;;12.75;1.92;;;14.10;53.70;;;;;;5054949;28;20029;-67
2021/04/19 06:07:47;;;;;;;12.85;1.92;;;14.30;50.00;;;;;;5053275;28;20017;-66
2021/04/19 06:10:35;;;;;;;9.75;1.92;;;14.20;49.80;;;;;;5048204;28;20147;-67
2021/04/19 06:13:02;;;;;;;11.35;1.85;;;14.20;49.70;;;;;;5054289;28;20056;-66
2021/04/19 06:15:29;;;;;;;11.50;2.15;;;14.20;49.60;;;;;;5055050;28;20028;-66
2021/04/19 06:17:56;;;;;;;9.65;1.60;;;14.20;49.50;;;;;;5054930;28;20060;-69
2021/04/19 06:20:23;;;;;;;8.85;1.75;;;14.20;49.50;;;;;;5054444;28;20036;-67
2021/04/19 06:22:50;;;;;;;20.38;1.70;;;14.30;49.00;;;;;;5053454;28;20146;-70
2021/04/19 06:25:18;;;;;;;14.68;2.55;;;14.30;48.90;;;;;;5052110;28;20024;-69
2021/04/19 06:27:43;;;;;;;16.08;1.85;;;14.30;48.90;;;;;;5037033;28;20111;-67
2021/04/19 06:30:19;;;;;;;27.98;1.98;;;14.20;48.90;;;;;;5049286;28;20071;-68
2021/04/19 06:32:47;;;;;;;16.50;1.95;;;14.30;49.30;;;;;;5034385;28;20167;-68
2021/04/19 06:35:15;;;;;;;28.83;2.42;;;14.40;49.20;;;;;;5047232;28;20420;-68
2021/04/19 06:37:41;;;;;;;35.42;3.03;;;14.50;49.30;;;;;;5053828;28;20101;-66
2021/04/19 06:40:08;;;;;;;16.77;2.10;;;14.50;50.60;;;;;;5037007;28;20044;-69
2021/04/19 06:42:35;;;;;;;17.33;2.08;;;14.60;49.60;;;;;;5035663;28;20053;-68
2021/04/19 06:45:04;;;;;;;16.42;3.17;;;14.60;48.80;;;;;;5046718;28;20075;-69
2021/04/19 06:47:31;;;;;;;11.02;1.70;;;14.60;49.30;;;;;;5041927;28;20022;-69
2021/04/19 06:49:58;;;;;;;87.38;4.32;;;14.60;48.90;;;;;;5053277;28;20025;-69
2021/04/19 06:52:24;;;;;;;16.35;2.05;;;14.60;48.70;;;;;;5050357;28;20054;-69
2021/04/19 06:54:50;;;;;;;15.50;2.05;;;14.60;49.00;;;;;;5054169;28;20036;-70
2021/04/19 06:57:19;;;;;;;20.15;2.20;;;14.60;48.60;;;;;;5048344;28;20032;-69
2021/04/19 06:59:46;;;;;;;16.60;2.17;;;14.60;48.20;;;;;;5050954;28;20435;-67
2021/04/19 07:02:19;;;;;;;25.25;2.70;;;14.60;48.50;;;;;;5053194;28;20547;-69
2021/04/19 07:04:49;;;;;;;26.85;3.40;;;14.50;48.40;;;;;;5047180;28;20079;-69
2021/04/19 07:07:34;;;;;;;22.02;2.63;;;14.40;48.60;;;;;;5038941;28;20079;-67
2021/04/19 07:10:02;;;;;;;16.92;2.40;;;14.40;48.60;;;;;;5053617;28;20052;-69
2021/04/19 07:12:29;;;;;;;28.63;2.67;;;14.50;49.00;;;;;;5051074;28;20045;-69
2021/04/19 07:14:55;;;;;;;18.40;2.25;;;14.50;48.90;;;;;;5039473;28;20473;-69
2021/04/19 07:17:21;;;;;;;20.05;2.90;;;14.60;49.30;;;;;;5052901;28;20070;-69
2021/04/19 07:19:47;;;;;;;15.82;2.38;;;14.50;49.10;;;;;;5053869;28;20083;-69
2021/04/19 07:22:15;;;;;;;24.58;2.20;;;14.50;48.70;;;;;;5053418;28;20423;-69
2021/04/19 07:24:42;;;;;;;29.98;3.53;;;14.50;48.50;;;;;;5053583;28;20043;-69
2021/04/19 07:27:11;;;;;;;37.65;3.28;;;14.50;48.60;;;;;;5052826;28;20029;-67
2021/04/19 07:29:39;;;;;;;35.88;2.95;;;14.50;48.90;;;;;;5052032;28;20377;-68
2021/04/19 07:32:06;;;;;;;38.05;4.60;;;14.50;48.90;;;;;;5049610;28;20041;-68
2021/04/19 07:34:32;;;;;;;40.83;3.55;;;14.50;48.70;;;;;;5052885;28;20029;-68
2021/04/19 07:37:03;;;;;;;25.38;3.30;;;14.50;49.00;;;;;;5052486;28;20056;-68
2021/04/19 07:39:38;;;;;;;38.05;2.92;;;14.50;48.90;;;;;;5053410;28;20036;-68
2021/04/19 07:42:16;;;;;;;30.35;3.40;;;14.50;48.70;;;;;;5052788;28;20021;-68
2021/04/19 07:44:50;;;;;;;36.97;4.45;;;14.40;48.50;;;;;;5052894;28;20111;-68
2021/04/19 07:47:33;;;;;;;34.83;3.75;;;14.30;48.80;;;;;;5052593;28;20427;-68
2021/04/19 07:50:12;;;;;;;34.38;3.53;;;14.30;49.30;;;;;;5043483;28;20135;-68
2021/04/19 07:52:50;;;;;;;38.20;3.67;;;14.30;49.00;;;;;;5052509;28;20021;-68
2021/04/19 07:55:20;;;;;;;21.55;2.83;;;14.30;49.60;;;;;;5053020;28;20021;-68
2021/04/19 07:57:47;;;;;;;35.95;3.35;;;14.30;48.90;;;;;;5052653;28;20025;-68
2021/04/19 08:00:33;;;;;;;33.97;3.42;;;14.40;48.80;;;;;;5050213;28;20033;-67
2021/04/19 08:03:04;;;;;;;48.30;3.45;;;14.30;50.30;;;;;;5035678;28;20033;-67
2021/04/19 08:05:35;;;;;;;36.55;3.58;;;14.30;53.00;;;;;;5032948;28;20083;-68
2021/04/19 08:08:02;;;;;;;24.50;3.50;;;14.50;53.00;;;;;;5046060;28;20025;-68
2021/04/19 08:10:28;;;;;;;24.20;3.38;;;14.50;52.30;;;;;;5044962;28;20550;-68
2021/04/19 08:13:03;;;;;;;45.60;3.17;;;14.50;51.40;;;;;;5052384;28;20123;-67
2021/04/19 08:15:29;;;;;;;27.13;2.70;;;14.50;52.50;;;;;;5040290;28;20037;-67
2021/04/19 08:18:08;;;;;;;23.15;2.53;;;14.60;51.10;;;;;;5050496;28;20457;-66
2021/04/19 08:20:36;;;;;;;12.90;2.50;;;14.70;51.40;;;;;;5038377;28;20358;-67
2021/04/19 08:23:12;;;;;;;17.92;2.13;;;14.80;50.30;;;;;;5049064;28;20405;-67
2021/04/19 08:25:41;;;;;;;28.27;4.15;;;14.80;50.90;;;;;;5052488;28;20025;-68
2021/04/19 08:28:15;;;;;;;42.97;3.65;;;14.80;49.60;;;;;;5051544;28;20019;-68
2021/04/19 08:30:49;;;;;;;59.67;4.30;;;14.80;49.90;;;;;;5048136;28;20067;-68
2021/04/19 08:33:15;;;;;;;24.08;2.17;;;14.90;49.80;;;;;;5043473;28;20032;-68
2021/04/19 08:35:43;;;;;;;13.23;2.00;;;14.90;49.80;;;;;;5048348;28;20032;-68
2021/04/19 08:38:09;;;;;;;38.90;2.80;;;14.90;49.10;;;;;;5034873;28;20025;-68
2021/04/19 08:40:38;;;;;;;16.17;2.40;;;14.90;48.90;;;;;;5032336;28;20025;-68
2021/04/19 08:43:10;;;;;;;41.45;3.40;;;15.00;49.10;;;;;;5032328;28;20033;-68
2021/04/19 08:45:40;;;;;;;31.42;3.20;;;15.00;49.50;;;;;;5032251;28;20057;-68
2021/04/19 08:48:10;;;;;;;25.85;2.42;;;15.20;49.80;;;;;;5050867;28;20044;-68
2021/04/19 08:50:36;;;;;;;20.17;2.17;;;15.20;49.30;;;;;;5051973;28;20480;-68
2021/04/19 08:53:01;;;;;;;9.90;1.88;;;15.30;49.30;;;;;;5051857;28;20021;-68
2021/04/19 08:55:27;;;;;;;6.47;1.88;;;15.40;47.90;;;;;;5043036;28;20538;-68
2021/04/19 08:58:00;;;;;;;12.00;1.45;;;15.40;47.30;;;;;;5047873;28;20534;-68
2021/04/19 09:00:27;;;;;;;17.88;2.15;;;15.40;46.80;;;;;;5049678;28;20036;-67
2021/04/19 09:02:53;;;;;;;21.33;1.80;;;15.50;47.80;;;;;;5049492;28;20421;-67
2021/04/19 09:05:23;;;;;;;25.17;2.33;;;15.50;47.10;;;;;;5046917;28;20112;-67
2021/04/19 09:07:59;;;;;;;14.07;2.00;;;15.60;46.40;;;;;;5044297;28;20500;-67
2021/04/19 09:10:26;;;;;;;14.82;1.70;;;15.50;46.30;;;;;;5050545;28;20055;-67
2021/04/19 09:12:52;;;;;;;10.98;1.63;;;15.50;46.50;;;;;;5037765;28;20049;-67
2021/04/19 09:15:19;;;;;;;23.05;2.03;;;15.50;47.10;;;;;;5042110;28;20029;-67
2021/04/19 09:18:05;;;;;;;18.35;2.40;;;15.50;47.40;;;;;;5034151;28;20026;-67
2021/04/19 09:20:52;;;;;;;28.00;3.20;;;15.60;47.00;;;;;;5051582;28;20025;-66
2021/04/19 09:23:26;;;;;;;21.13;2.58;;;15.70;47.00;;;;;;5051261;28;20111;-67
2021/04/19 09:25:55;;;;;;;13.50;1.90;;;15.70;46.50;;;;;;5048589;28;20388;-67
2021/04/19 09:28:39;;;;;;;22.27;2.05;;;15.70;46.20;;;;;;5047160;28;20029;-66
2021/04/19 09:31:05;;;;;;;7.47;1.90;;;15.70;46.50;;;;;;5044993;28;20080;-67
2021/04/19 09:33:31;;;;;;;11.88;1.42;;;15.70;46.10;;;;;;5040455;28;20022;-67
2021/04/19 09:35:57;;;;;;;9.38;1.98;;;15.70;45.50;;;;;;5045545;28;20561;-66
2021/04/19 09:38:31;;;;;;;27.77;2.65;;;15.70;45.30;;;;;;5039082;28;20041;-66
2021/04/19 09:40:59;;;;;;;12.43;1.48;;;15.80;45.00;;;;;;5049976;28;20029;-67
2021/04/19 09:43:54;;;;;;;11.32;1.52;;;15.80;44.70;;;;;;5048023;28;20032;-66
2021/04/19 09:46:19;;;;;;;11.15;1.50;;;15.80;44.10;;;;;;5049967;28;20020;-67
2021/04/19 09:48:52;;;;;;;68.40;4.50;;;15.80;41.90;;;;;;5031260;28;20438;-67
2021/04/19 09:51:18;;;;;;;21.70;2.42;;;15.80;42.00;;;;;;5036428;28;20034;-67
2021/04/19 09:54:05;;;;;;;17.38;1.80;;;15.90;43.30;;;;;;5039606;28;20025;-66
2021/04/19 09:56:40;;;;;;;15.93;1.70;;;16.00;42.40;;;;;;5039522;28;20429;-66
2021/04/19 09:59:14;;;;;;;17.33;1.77;;;16.10;42.30;;;;;;5040138;28;20080;-65
2021/04/19 10:01:41;;;;;;;24.42;2.53;;;16.10;41.70;;;;;;5043904;28;20033;-67
2021/04/19 10:04:06;;;;;;;19.92;2.17;;;16.10;42.70;;;;;;5050568;28;20489;-66
2021/04/19 10:06:43;;;;;;;10.52;1.70;;;16.30;41.50;;;;;;5043809;28;20032;-66
2021/04/19 10:09:14;;;;;;;11.57;1.52;;;16.40;41.50;;;;;;5050941;28;20096;-66
2021/04/19 10:11:47;;;;;;;18.02;1.50;;;16.40;40.90;;;;;;5045003;28;20528;-65
2021/04/19 10:14:16;;;;;;;31.83;2.63;;;16.60;48.20;;;;;;5048960;28;20404;-67
2021/04/19 10:16:47;;;;;;;18.15;2.30;;;17.00;44.60;;;;;;5031291;28;20033;-66
2021/04/19 10:19:23;;;;;;;3.65;1.27;;;16.80;42.80;;;;;;5039924;28;20535;-66
2021/04/19 10:21:58;;;;;;;67.72;4.53;;;16.80;40.20;;;;;;5051171;28;20033;-66
2021/04/19 10:24:24;;;;;;;30.58;3.03;;;16.60;40.60;;;;;;5041804;28;20461;-66
2021/04/19 10:26:49;;;;;;;8.70;1.23;;;16.60;40.10;;;;;;5037320;28;20059;-66
2021/04/19 10:29:20;;;;;;;7.35;1.58;;;16.50;40.00;;;;;;5034887;28;20032;-66
2021/04/19 10:31:48;;;;;;;21.38;2.00;;;16.40;40.40;;;;;;5050627;28;20032;-66
2021/04/19 10:34:13;;;;;;;9.05;1.25;;;16.40;40.10;;;;;;5043292;28;20071;-66
2021/04/19 10:36:58;;;;;;;18.83;2.65;;;16.40;40.00;;;;;;5044016;28;20025;-66
2021/04/19 10:39:27;;;;;;;11.00;1.35;;;16.40;39.80;;;;;;5050878;28;20032;-66
2021/04/19 10:41:56;;;;;;;18.73;1.97;;;16.40;39.60;;;;;;5037206;28;20032;-66
2021/04/19 10:44:38;;;;;;;2.78;0.90;;;16.40;39.60;;;;;;5054243;28;20479;-66
2021/04/19 10:47:09;;;;;;;11.15;1.45;;;16.40;39.80;;;;;;5054365;28;20033;-66
2021/04/19 10:49:35;;;;;;;35.25;2.35;;;16.40;39.10;;;;;;5054248;28;20044;-66
2021/04/19 10:52:04;;;;;;;5.57;1.50;;;16.40;40.20;;;;;;5054220;28;20036;-66
2021/04/19 10:54:34;;;;;;;43.95;2.95;;;16.40;40.00;;;;;;5040094;28;20021;-66
2021/04/19 10:57:01;;;;;;;36.63;3.13;;;16.40;39.50;;;;;;5041694;28;20117;-66
2021/04/19 10:59:28;;;;;;;17.60;1.67;;;16.50;39.00;;;;;;5048318;28;20095;-66
2021/04/19 11:02:00;;;;;;;3.78;1.25;;;16.50;39.60;;;;;;5045035;28;20032;-66
2021/04/19 11:04:26;;;;;;;9.82;1.23;;;16.60;39.20;;;;;;5053647;28;20068;-66
2021/04/19 11:06:52;;;;;;;4.60;1.10;;;16.60;39.10;;;;;;5053974;28;20063;-66
2021/04/19 11:09:19;;;;;;;8.52;1.20;;;16.60;38.70;;;;;;5053670;28;20032;-66
2021/04/19 11:11:48;;;;;;;4.97;1.25;;;16.60;38.70;;;;;;5053882;28;20045;-66
2021/04/19 11:14:23;;;;;;;31.25;2.40;;;16.60;38.00;;;;;;5053451;28;20029;-66
2021/04/19 11:17:05;;;;;;;12.07;1.30;;;16.60;38.40;;;;;;5054097;28;20024;-66
2021/04/19 11:19:41;;;;;;;35.03;3.75;;;16.60;38.30;;;;;;5052226;28;20041;-66
2021/04/19 11:22:22;;;;;;;18.90;2.17;;;16.60;38.50;;;;;;5047970;28;20465;-66
2021/04/19 11:24:49;;;;;;;5.40;1.15;;;16.60;38.80;;;;;;5053548;28;20029;-66
2021/04/19 11:27:20;;;;;;;23.10;2.20;;;16.60;38.50;;;;;;5039370;28;20517;-66
2021/04/19 11:29:46;;;;;;;7.85;1.20;;;16.60;38.10;;;;;;5042089;28;20025;-66
2021/04/19 11:32:31;;;;;;;27.33;2.50;;;16.70;38.20;;;;;;5033814;28;20082;-66
2021/04/19 11:34:57;;;;;;;27.08;2.53;;;16.70;38.00;;;;;;5048757;28;20051;-66
2021/04/19 11:37:31;;;;;;;14.63;1.17;;;16.70;36.90;;;;;;5036667;28;20105;-66
2021/04/19 11:39:57;;;;;;;4.78;1.08;;;16.70;36.60;;;;;;5048757;28;20037;-66
2021/04/19 11:42:32;;;;;;;21.35;1.65;;;16.70;36.80;;;;;;5045761;28;20102;-66
2021/04/19 11:44:59;;;;;;;8.45;1.50;;;16.70;36.00;;;;;;5048152;28;20459;-66
2021/04/19 11:47:25;;;;;;;10.68;1.75;;;16.70;34.90;;;;;;5053623;28;20028;-66
2021/04/19 11:49:54;;;;;;;8.23;1.20;;;16.70;34.60;;;;;;5053148;28;20396;-66
2021/04/19 11:52:20;;;;;;;4.38;1.02;;;16.60;34.60;;;;;;5033931;28;20098;-66
2021/04/19 11:54:46;;;;;;;7.38;1.08;;;16.60;34.80;;;;;;5043416;28;20071;-66
2021/04/19 11:57:12;;;;;;;10.32;1.27;;;16.70;36.10;;;;;;5052933;28;20017;-66
2021/04/19 11:59:38;;;;;;;8.90;1.20;;;16.70;36.30;;;;;;5044058;28;20040;-66
2021/04/19 12:02:04;;;;;;;5.63;1.10;;;16.70;36.00;;;;;;5034350;28;20477;-66
2021/04/19 12:04:30;;;;;;;11.38;1.08;;;16.70;35.80;;;;;;5052366;28;20498;-66
2021/04/19 12:06:57;;;;;;;38.55;2.53;;;16.60;35.10;;;;;;5035164;28;20096;-66
2021/04/19 12:09:23;;;;;;;10.98;1.80;;;16.70;35.10;;;;;;5042809;28;20053;-66
2021/04/19 12:11:48;;;;;;;4.20;1.00;;;16.70;34.30;;;;;;5052174;28;20049;-66
2021/04/19 12:14:14;;;;;;;8.13;1.20;;;16.70;34.30;;;;;;5045848;28;20033;-66
2021/04/19 12:16:40;;;;;;;9.75;1.30;;;16.70;34.20;;;;;;5036729;28;20032;-66
2021/04/19 12:19:06;;;;;;;12.23;1.70;;;16.70;33.70;;;;;;5048509;28;20040;-67
2021/04/19 12:21:32;;;;;;;25.38;2.72;;;16.70;34.30;;;;;;5052045;28;20104;-67
2021/04/19 12:23:58;;;;;;;7.68;0.95;;;16.90;41.20;;;;;;5052329;28;20136;-67
2021/04/19 12:26:23;;;;;;;22.63;2.40;;;17.00;34.60;;;;;;5052183;28;20541;-67
2021/04/19 12:28:50;;;;;;;23.77;2.97;;;16.80;34.70;;;;;;5052597;28;20017;-67
2021/04/19 12:31:15;;;;;;;20.05;1.65;;;16.80;34.70;;;;;;5052404;28;20033;-67
2021/04/19 12:33:41;;;;;;;4.35;0.80;;;16.80;33.70;;;;;;5049849;28;20021;-67
2021/04/19 12:36:07;;;;;;;16.65;1.88;;;16.80;32.10;;;;;;5040345;28;20043;-67
2021/04/19 12:38:34;;;;;;;7.78;1.20;;;16.80;32.10;;;;;;5038081;28;20037;-67
2021/04/19 12:41:00;;;;;;;18.13;1.50;;;16.70;32.00;;;;;;5052237;28;20076;-67
2021/04/19 12:43:25;;;;;;;20.65;1.73;;;16.70;33.20;;;;;;5052261;28;20418;-67
2021/04/19 12:45:51;;;;;;;71.72;4.00;;;16.70;32.80;;;;;;5052400;28;20021;-67
2021/04/19 12:48:17;;;;;;;8.57;1.23;;;16.60;33.20;;;;;;5051055;28;20029;-67
2021/04/19 12:50:43;;;;;;;5.95;1.17;;;16.60;33.60;;;;;;5052311;28;20373;-67
2021/04/19 12:53:09;;;;;;;5.40;1.45;;;16.70;40.40;;;;;;5038300;28;20393;-67
2021/04/19 12:55:37;;;;;;;24.45;2.63;;;16.90;36.20;;;;;;5043668;28;20713;-66
2021/04/19 12:58:03;;;;;;;15.05;1.75;;;16.80;36.30;;;;;;5051856;28;20499;-67
2021/04/19 13:00:29;;;;;;;14.80;1.33;;;16.80;36.70;;;;;;5043437;28;20041;-67
2021/04/19 13:02:54;;;;;;;9.27;2.10;;;16.70;36.90;;;;;;5031998;28;20025;-67
2021/04/19 13:05:20;;;;;;;8.93;1.35;;;16.70;37.30;;;;;;5031408;28;20060;-67
2021/04/19 13:07:49;;;;;;;4.18;1.10;;;16.60;36.70;;;;;;5031906;28;20032;-67
2021/04/19 13:10:17;;;;;;;11.90;1.50;;;16.60;37.00;;;;;;5034036;28;20022;-67
2021/04/19 13:12:43;;;;;;;8.35;1.40;;;16.50;37.10;;;;;;5043479;28;20051;-67
2021/04/19 13:15:10;;;;;;;6.90;1.45;;;16.50;37.50;;;;;;5051824;28;20108;-67
2021/04/19 13:17:36;;;;;;;23.88;2.83;;;16.40;37.30;;;;;;5034276;28;20028;-67
2021/04/19 13:20:03;;;;;;;9.60;2.55;;;16.40;37.10;;;;;;5035038;28;20038;-67
2021/04/19 13:22:28;;;;;;;11.88;2.22;;;16.40;38.40;;;;;;5036168;28;20105;-67
2021/04/19 13:24:54;;;;;;;21.17;2.05;;;16.30;38.70;;;;;;5051859;28;20100;-67
2021/04/19 13:27:20;;;;;;;8.63;1.50;;;16.30;38.00;;;;;;5051638;28;20048;-67
2021/04/19 13:29:47;;;;;;;37.85;4.10;;;16.30;38.00;;;;;;5051879;28;20025;-67
2021/04/19 13:32:13;;;;;;;10.10;1.30;;;16.30;38.70;;;;;;5051675;28;20369;-67
2021/04/19 13:34:39;;;;;;;6.75;1.60;;;16.20;37.50;;;;;;5037185;28;20020;-67
2021/04/19 13:37:04;;;;;;;19.67;1.52;;;16.10;38.20;;;;;;5038681;28;20132;-67
2021/04/19 13:39:31;;;;;;;48.97;4.20;;;16.00;38.20;;;;;;5041540;28;20045;-67
2021/04/19 13:41:57;;;;;;;19.48;2.28;;;16.00;38.70;;;;;;5037768;28;20104;-67
2021/04/19 13:44:24;;;;;;;49.20;3.80;;;16.00;38.50;;;;;;5051234;28;20044;-67
2021/04/19 13:46:51;;;;;;;30.92;2.53;;;16.00;38.70;;;;;;5040438;28;20610;-67
2021/04/19 13:49:17;;;;;;;8.35;1.85;;;16.00;38.90;;;;;;5046891;28;20030;-67
2021/04/19 13:51:43;;;;;;;14.85;2.33;;;16.00;38.40;;;;;;5047563;28;20493;-67
2021/04/19 13:54:10;;;;;;;11.65;1.80;;;16.00;38.60;;;;;;5049316;28;20083;-68
2021/04/19 13:56:36;;;;;;;126.25;6.45;;;16.00;39.50;;;;;;5050828;28;20057;-68
2021/04/19 13:59:02;;;;;;;15.90;1.50;;;16.00;39.40;;;;;;5045060;28;20033;-67
2021/04/19 14:01:29;;;;;;;17.52;2.50;;;16.00;39.10;;;;;;5051567;28;20029;-67
2021/04/19 14:03:54;;;;;;;18.58;2.35;;;16.00;39.00;;;;;;5047465;28;20037;-67
2021/04/19 14:06:20;;;;;;;22.27;2.05;;;16.00;38.30;;;;;;5044839;28;20033;-67
2021/04/19 14:08:46;;;;;;;24.70;2.80;;;15.90;38.60;;;;;;5050299;28;20032;-68
2021/04/19 14:11:12;;;;;;;18.08;1.65;;;15.90;38.70;;;;;;5050187;28;20029;-68
2021/04/19 14:13:37;;;;;;;9.98;1.55;;;15.90;39.20;;;;;;5048136;28;20068;-66
2021/04/19 14:16:03;;;;;;;10.13;1.60;;;15.90;39.30;;;;;;5048505;28;20020;-66
2021/04/19 14:18:29;;;;;;;16.05;1.77;;;15.90;39.20;;;;;;5048182;28;20484;-66
2021/04/19 14:20:55;;;;;;;8.25;1.50;;;15.90;38.80;;;;;;5041006;28;20118;-67
2021/04/19 14:23:23;;;;;;;14.73;1.75;;;15.80;38.70;;;;;;5045363;28;20033;-66
2021/04/19 14:25:49;;;;;;;12.10;1.95;;;15.80;38.50;;;;;;5054891;28;20017;-66
2021/04/19 14:28:15;;;;;;;17.75;2.10;;;15.70;38.90;;;;;;5052338;28;20017;-67
2021/04/19 14:30:41;;;;;;;28.65;2.90;;;15.70;38.70;;;;;;5052125;28;20090;-66
2021/04/19 14:33:06;;;;;;;16.45;2.20;;;15.70;38.70;;;;;;5054493;28;20369;-66
2021/04/19 14:35:32;;;;;;;24.05;3.35;;;15.60;38.80;;;;;;5054571;28;20108;-66
2021/04/19 14:37:58;;;;;;;5.80;1.30;;;15.60;39.50;;;;;;5054538;28;20435;-66
2021/04/19 14:40:23;;;;;;;7.80;1.90;;;15.60;39.60;;;;;;5053633;28;20575;-66
2021/04/19 14:42:49;;;;;;;22.55;1.50;;;15.70;39.00;;;;;;5054844;28;20048;-66
2021/04/19 14:45:16;;;;;;;19.15;1.85;;;15.70;38.70;;;;;;5054377;28;20028;-66
2021/04/19 14:47:42;;;;;;;23.33;2.03;;;15.70;38.60;;;;;;5054125;28;20490;-66
2021/04/19 14:50:09;;;;;;;8.02;1.73;;;15.60;38.20;;;;;;5053155;28;20101;-66
2021/04/19 14:52:35;;;;;;;17.38;1.92;;;15.60;37.80;;;;;;5053769;28;20024;-66
2021/04/19 14:55:05;;;;;;;9.38;1.70;;;15.60;37.60;;;;;;5048948;28;20028;-66
2021/04/19 14:57:31;;;;;;;;;;;15.60;38.10;;;;;;5043953;28;20074;-66
2021/04/19 14:59:57;;;;;;;13.93;1.90;;;15.60;38.50;;;;;;5044966;28;19917;-67
2021/04/19 15:02:22;;;;;;;26.50;2.30;;;15.60;38.10;;;;;;5047210;28;20341;-66
2021/04/19 15:04:49;;;;;;;22.70;1.85;;;15.60;38.10;;;;;;5054529;28;20032;-66
2021/04/19 15:07:15;;;;;;;14.27;1.95;;;15.60;37.60;;;;;;5052297;28;20021;-66
2021/04/19 15:09:41;;;;;;;27.38;1.90;;;15.60;37.70;;;;;;5053430;28;20104;-66
2021/04/19 15:12:07;;;;;;;24.45;2.20;;;15.60;37.60;;;;;;5053671;28;20127;-66
2021/04/19 15:14:33;;;;;;;22.75;2.33;;;15.60;38.70;;;;;;5053857;28;20021;-66
2021/04/19 15:16:58;;;;;;;21.98;2.22;;;15.60;39.20;;;;;;5053523;28;20518;-66
2021/04/19 15:19:24;;;;;;;7.45;1.17;;;15.60;39.30;;;;;;5053268;28;20033;-66
2021/04/19 15:21:50;;;;;;;12.23;1.42;;;15.60;38.60;;;;;;5053017;28;20108;-66
2021/04/19 15:24:16;;;;;;;5.55;1.80;;;15.50;38.70;;;;;;5053121;28;20029;-66
2021/04/19 15:26:41;;;;;;;18.95;2.00;;;15.40;39.00;;;;;;5050171;28;20067;-66
2021/04/19 15:29:07;;;;;;;10.30;1.75;;;15.30;39.10;;;;;;5049517;28;20111;-66
2021/04/19 15:31:34;;;;;;;8.00;1.50;;;15.30;39.40;;;;;;5059396;28;20025;-66
2021/04/19 15:34:04;;;;;;;60.40;3.55;;;15.30;39.60;;;;;;5057829;28;20017;-66
2021/04/19 15:36:30;;;;;;;4.65;1.35;;;15.20;40.20;;;;;;5061211;28;20021;-66
2021/04/19 15:38:56;;;;;;;12.20;1.75;;;15.20;40.30;;;;;;5055999;28;20041;-66
2021/04/19 15:41:22;;;;;;;8.45;1.50;;;15.20;40.90;;;;;;5064442;28;20016;-66
2021/04/19 15:43:48;;;;;;;13.07;1.90;;;15.20;41.30;;;;;;5056627;28;20033;-66
2021/04/19 15:46:14;;;;;;;22.10;2.45;;;15.20;41.20;;;;;;5053564;28;20028;-66
2021/04/19 15:48:40;;;;;;;6.45;1.95;;;15.10;41.40;;;;;;5053152;28;20025;-66
2021/04/19 15:51:07;;;;;;;6.82;1.35;;;15.10;41.70;;;;;;5053161;28;20032;-66
2021/04/19 15:53:33;;;;;;;9.43;1.60;;;15.00;41.60;;;;;;5053244;28;20381;-66
2021/04/19 15:55:59;;;;;;;18.85;1.88;;;15.00;42.10;;;;;;5053340;28;20029;-66
2021/04/19 15:58:25;;;;;;;14.02;2.15;;;15.00;42.80;;;;;;5049715;28;20082;-66
2021/04/19 16:00:51;;;;;;;11.25;1.70;;;15.00;43.10;;;;;;5053092;28;20104;-66
2021/04/19 16:03:18;;;;;;;9.75;1.90;;;15.00;43.10;;;;;;5053075;28;20067;-67
2021/04/19 16:05:45;;;;;;;15.60;2.00;;;15.00;43.50;;;;;;5053167;28;20440;-66
2021/04/19 16:08:11;;;;;;;14.45;3.53;;;14.90;43.60;;;;;;5041346;28;20036;-72
2021/04/19 16:10:37;;;;;;;19.92;3.75;;;14.80;43.50;;;;;;5043815;28;20018;-67
2021/04/19 16:13:03;;;;;;;16.73;2.45;;;14.80;44.10;;;;;;5050951;28;20412;-66
2021/04/19 16:15:29;;;;;;;13.13;1.90;;;14.90;47.00;;;;;;5052583;28;20120;-67
2021/04/19 16:17:54;;;;;;;23.88;2.58;;;15.00;44.70;;;;;;5043294;28;20172;-67
2021/04/19 16:20:21;;;;;;;7.68;1.30;;;14.90;44.50;;;;;;5033782;28;20052;-67
2021/04/19 16:22:48;;;;;;;6.97;1.60;;;14.70;44.50;;;;;;5032548;28;20029;-67
2021/04/19 16:25:15;;;;;;;11.18;1.70;;;14.70;44.90;;;;;;5043335;28;20029;-67
2021/04/19 16:27:41;;;;;;;24.10;3.13;;;14.70;45.00;;;;;;5034799;28;20033;-67
2021/04/19 16:30:10;;;;;;;17.83;2.15;;;14.60;45.10;;;;;;5035009;28;20037;-67
2021/04/19 16:32:37;;;;;;;26.50;2.33;;;14.60;45.50;;;;;;5050058;28;20009;-67
2021/04/19 16:35:04;;;;;;;11.48;1.60;;;14.50;45.30;;;;;;5040644;28;20036;-67
2021/04/19 16:37:29;;;;;;;10.30;2.03;;;14.50;45.80;;;;;;5041119;28;20108;-67
2021/04/19 16:39:55;;;;;;;10.48;1.58;;;14.40;46.10;;;;;;5051265;28;20117;-67
2021/04/19 16:42:21;;;;;;;7.28;1.70;;;14.40;45.80;;;;;;5052044;28;20049;-67
2021/04/19 16:44:47;;;;;;;13.95;2.65;;;14.80;50.40;;;;;;5051628;28;20029;-67
2021/04/19 16:47:12;;;;;;;10.30;1.73;;;14.90;45.90;;;;;;5032621;28;20140;-67
2021/04/19 16:49:38;;;;;;;15.63;1.80;;;14.70;45.60;;;;;;5040524;28;20036;-67
2021/04/19 16:52:04;;;;;;;21.08;2.13;;;14.50;45.50;;;;;;5051706;28;20017;-67
2021/04/19 16:54:30;;;;;;;11.50;2.30;;;14.40;45.60;;;;;;5044860;28;20090;-67
2021/04/19 16:56:56;;;;;;;14.00;2.15;;;14.30;45.80;;;;;;5051277;28;20021;-67